sensor_id;sensor_type;location;lat;lon;timestamp;P1;durP1;ratioP1;P2;durP2;ratioP2
72517;SDS011;60540;51.178;6.738;2023-04-19T00:02:02;13.15;;;7.10;;
72517;SDS011;60540;51.178;6.738;2023-04-19T00:04:28;13.45;;;7.90;;
72517;SDS011;60540;51.178;6.738;2023-04-19T00:06:54;14.45;;;7.50;;
72517;SDS011;60540;51.178;6.738;2023-04-19T00:09:21;12.63;;;7.47;;
72517;SDS011;60540;51.178;6.738;2023-04-19T00:11:46;14.52;;;8.48;;
72517;SDS011;60540;51.178;6.738;2023-04-19T00:14:12;12.43;;;7.43;;
72517;SDS011;60540;51.178;6.738;2023-04-19T00:16:38;14.60;;;8.35;;
72517;SDS011;60540;51.178;6.738;2023-04-19T00:19:03;12.70;;;7.05;;
72517;SDS011;60540;51.178;6.738;2023-04-19T00:21:29;12.00;;;7.07;;
72517;SDS011;60540;51.178;6.738;2023-04-19T00:23:55;12.20;;;7.50;;
72517;SDS011;60540;51.178;6.738;2023-04-19T00:26:21;13.05;;;7.20;;
72517;SDS011;60540;51.178;6.738;2023-04-19T00:28:47;13.52;;;7.65;;
72517;SDS011;60540;51.178;6.738;2023-04-19T00:31:12;11.73;;;7.30;;
72517;SDS011;60540;51.178;6.738;2023-04-19T00:33:38;11.45;;;7.78;;
72517;SDS011;60540;51.178;6.738;2023-04-19T00:36:04;12.00;;;7.35;;
72517;SDS011;60540;51.178;6.738;2023-04-19T00:38:30;13.30;;;7.38;;
72517;SDS011;60540;51.178;6.738;2023-04-19T00:40:57;12.18;;;7.70;;
72517;SDS011;60540;51.178;6.738;2023-04-19T00:43:23;11.75;;;7.25;;
72517;SDS011;60540;51.178;6.738;2023-04-19T00:45:49;12.55;;;7.55;;
72517;SDS011;60540;51.178;6.738;2023-04-19T00:48:15;11.82;;;7.22;;
72517;SDS011;60540;51.178;6.738;2023-04-19T00:50:42;14.57;;;8.18;;
72517;SDS011;60540;51.178;6.738;2023-04-19T00:53:08;14.02;;;7.60;;
72517;SDS011;60540;51.178;6.738;2023-04-19T00:55:34;13.20;;;7.68;;
72517;SDS011;60540;51.178;6.738;2023-04-19T00:58:00;12.68;;;7.28;;
72517;SDS011;60540;51.178;6.738;2023-04-19T01:00:26;10.90;;;6.75;;
72517;SDS011;60540;51.178;6.738;2023-04-19T01:02:52;14.25;;;7.40;;
72517;SDS011;60540;51.178;6.738;2023-04-19T01:05:19;12.38;;;7.15;;
72517;SDS011;60540;51.178;6.738;2023-04-19T01:07:45;14.15;;;7.53;;
72517;SDS011;60540;51.178;6.738;2023-04-19T01:10:11;15.30;;;8.00;;
72517;SDS011;60540;51.178;6.738;2023-04-19T01:12:37;12.38;;;7.10;;
72517;SDS011;60540;51.178;6.738;2023-04-19T01:17:37;11.88;;;6.90;;
72517;SDS011;60540;51.178;6.738;2023-04-19T01:20:04;13.55;;;7.25;;
72517;SDS011;60540;51.178;6.738;2023-04-19T01:22:36;13.32;;;7.60;;
72517;SDS011;60540;51.178;6.738;2023-04-19T01:25:02;12.68;;;7.30;;
72517;SDS011;60540;51.178;6.738;2023-04-19T01:27:29;12.27;;;7.10;;
72517;SDS011;60540;51.178;6.738;2023-04-19T01:29:55;13.50;;;7.50;;
72517;SDS011;60540;51.178;6.738;2023-04-19T01:32:20;14.63;;;8.05;;
72517;SDS011;60540;51.178;6.738;2023-04-19T01:34:47;13.90;;;7.97;;
72517;SDS011;60540;51.178;6.738;2023-04-19T01:39:39;13.00;;;7.18;;
72517;SDS011;60540;51.178;6.738;2023-04-19T01:42:04;15.60;;;8.35;;
72517;SDS011;60540;51.178;6.738;2023-04-19T01:44:30;13.70;;;7.35;;
72517;SDS011;60540;51.178;6.738;2023-04-19T01:46:56;14.15;;;8.00;;
72517;SDS011;60540;51.178;6.738;2023-04-19T01:49:22;12.48;;;7.22;;
72517;SDS011;60540;51.178;6.738;2023-04-19T01:51:47;11.75;;;7.60;;
72517;SDS011;60540;51.178;6.738;2023-04-19T01:54:13;14.50;;;7.63;;
72517;SDS011;60540;51.178;6.738;2023-04-19T01:56:39;14.77;;;8.30;;
72517;SDS011;60540;51.178;6.738;2023-04-19T01:59:05;14.88;;;8.75;;
72517;SDS011;60540;51.178;6.738;2023-04-19T02:01:30;13.68;;;7.32;;
72517;SDS011;60540;51.178;6.738;2023-04-19T02:03:56;14.07;;;8.23;;
72517;SDS011;60540;51.178;6.738;2023-04-19T02:06:22;13.48;;;7.50;;
72517;SDS011;60540;51.178;6.738;2023-04-19T02:08:48;13.73;;;7.65;;
72517;SDS011;60540;51.178;6.738;2023-04-19T02:11:13;13.40;;;7.22;;
72517;SDS011;60540;51.178;6.738;2023-04-19T02:13:39;12.60;;;7.75;;
72517;SDS011;60540;51.178;6.738;2023-04-19T02:16:05;16.52;;;8.40;;
72517;SDS011;60540;51.178;6.738;2023-04-19T02:18:31;13.40;;;7.25;;
72517;SDS011;60540;51.178;6.738;2023-04-19T02:20:57;11.85;;;7.88;;
72517;SDS011;60540;51.178;6.738;2023-04-19T02:23:23;14.70;;;7.53;;
72517;SDS011;60540;51.178;6.738;2023-04-19T02:25:49;13.30;;;8.07;;
72517;SDS011;60540;51.178;6.738;2023-04-19T02:28:15;11.82;;;7.05;;
72517;SDS011;60540;51.178;6.738;2023-04-19T02:30:41;13.30;;;7.68;;
72517;SDS011;60540;51.178;6.738;2023-04-19T02:33:07;12.73;;;7.10;;
72517;SDS011;60540;51.178;6.738;2023-04-19T02:35:33;13.23;;;7.05;;
72517;SDS011;60540;51.178;6.738;2023-04-19T02:37:59;11.38;;;6.72;;
72517;SDS011;60540;51.178;6.738;2023-04-19T02:40:25;12.95;;;7.50;;
72517;SDS011;60540;51.178;6.738;2023-04-19T02:42:51;13.05;;;7.63;;
72517;SDS011;60540;51.178;6.738;2023-04-19T02:45:17;12.30;;;7.18;;
72517;SDS011;60540;51.178;6.738;2023-04-19T02:47:43;11.77;;;7.75;;
72517;SDS011;60540;51.178;6.738;2023-04-19T02:50:11;12.85;;;8.27;;
72517;SDS011;60540;51.178;6.738;2023-04-19T02:52:37;13.18;;;7.22;;
72517;SDS011;60540;51.178;6.738;2023-04-19T02:55:04;13.70;;;8.07;;
72517;SDS011;60540;51.178;6.738;2023-04-19T02:59:56;13.55;;;7.47;;
72517;SDS011;60540;51.178;6.738;2023-04-19T03:02:22;14.27;;;8.18;;
72517;SDS011;60540;51.178;6.738;2023-04-19T03:04:47;13.65;;;7.50;;
72517;SDS011;60540;51.178;6.738;2023-04-19T03:07:13;14.18;;;7.70;;
72517;SDS011;60540;51.178;6.738;2023-04-19T03:09:39;14.05;;;7.72;;
72517;SDS011;60540;51.178;6.738;2023-04-19T03:12:06;16.67;;;7.43;;
72517;SDS011;60540;51.178;6.738;2023-04-19T03:14:32;12.10;;;7.60;;
72517;SDS011;60540;51.178;6.738;2023-04-19T03:17:01;13.18;;;8.50;;
72517;SDS011;60540;51.178;6.738;2023-04-19T03:19:27;13.88;;;7.57;;
72517;SDS011;60540;51.178;6.738;2023-04-19T03:21:53;12.93;;;7.43;;
72517;SDS011;60540;51.178;6.738;2023-04-19T03:24:19;13.00;;;7.45;;
72517;SDS011;60540;51.178;6.738;2023-04-19T03:26:45;13.82;;;7.50;;
72517;SDS011;60540;51.178;6.738;2023-04-19T03:29:11;12.02;;;7.07;;
72517;SDS011;60540;51.178;6.738;2023-04-19T03:31:38;14.02;;;8.13;;
72517;SDS011;60540;51.178;6.738;2023-04-19T03:34:04;13.43;;;7.70;;
72517;SDS011;60540;51.178;6.738;2023-04-19T03:36:30;14.45;;;7.63;;
72517;SDS011;60540;51.178;6.738;2023-04-19T03:38:55;12.80;;;7.53;;
72517;SDS011;60540;51.178;6.738;2023-04-19T03:41:25;13.00;;;7.53;;
72517;SDS011;60540;51.178;6.738;2023-04-19T03:43:51;13.32;;;7.53;;
72517;SDS011;60540;51.178;6.738;2023-04-19T03:46:17;13.45;;;7.80;;
72517;SDS011;60540;51.178;6.738;2023-04-19T03:48:42;14.13;;;8.07;;
72517;SDS011;60540;51.178;6.738;2023-04-19T03:51:08;11.90;;;7.47;;
72517;SDS011;60540;51.178;6.738;2023-04-19T03:53:34;12.20;;;7.57;;
72517;SDS011;60540;51.178;6.738;2023-04-19T03:58:26;13.45;;;7.75;;
72517;SDS011;60540;51.178;6.738;2023-04-19T04:00:52;14.48;;;7.25;;
72517;SDS011;60540;51.178;6.738;2023-04-19T04:03:18;12.48;;;7.20;;
72517;SDS011;60540;51.178;6.738;2023-04-19T04:05:44;14.40;;;7.65;;
72517;SDS011;60540;51.178;6.738;2023-04-19T04:08:09;11.80;;;6.82;;
72517;SDS011;60540;51.178;6.738;2023-04-19T04:10:35;11.20;;;7.63;;
72517;SDS011;60540;51.178;6.738;2023-04-19T04:13:01;12.13;;;7.15;;
72517;SDS011;60540;51.178;6.738;2023-04-19T04:15:27;12.50;;;7.22;;
72517;SDS011;60540;51.178;6.738;2023-04-19T04:17:52;13.00;;;6.35;;
72517;SDS011;60540;51.178;6.738;2023-04-19T04:20:18;10.90;;;6.25;;
72517;SDS011;60540;51.178;6.738;2023-04-19T04:22:44;11.68;;;6.60;;
72517;SDS011;60540;51.178;6.738;2023-04-19T04:25:13;12.20;;;6.88;;
72517;SDS011;60540;51.178;6.738;2023-04-19T04:27:40;11.63;;;6.15;;
72517;SDS011;60540;51.178;6.738;2023-04-19T04:30:07;11.50;;;6.80;;
72517;SDS011;60540;51.178;6.738;2023-04-19T04:32:33;11.00;;;6.25;;
72517;SDS011;60540;51.178;6.738;2023-04-19T04:35:00;11.18;;;6.38;;
72517;SDS011;60540;51.178;6.738;2023-04-19T04:39:52;10.38;;;5.20;;
72517;SDS011;60540;51.178;6.738;2023-04-19T04:42:18;9.18;;;5.13;;
72517;SDS011;60540;51.178;6.738;2023-04-19T04:44:46;8.68;;;5.13;;
72517;SDS011;60540;51.178;6.738;2023-04-19T04:47:12;9.85;;;5.35;;
72517;SDS011;60540;51.178;6.738;2023-04-19T04:49:38;9.52;;;4.80;;
72517;SDS011;60540;51.178;6.738;2023-04-19T04:52:03;8.57;;;4.78;;
72517;SDS011;60540;51.178;6.738;2023-04-19T04:54:30;8.57;;;4.68;;
72517;SDS011;60540;51.178;6.738;2023-04-19T04:56:57;9.35;;;4.55;;
72517;SDS011;60540;51.178;6.738;2023-04-19T04:59:23;9.10;;;4.82;;
72517;SDS011;60540;51.178;6.738;2023-04-19T05:01:49;7.72;;;4.10;;
72517;SDS011;60540;51.178;6.738;2023-04-19T05:04:15;7.28;;;4.22;;
72517;SDS011;60540;51.178;6.738;2023-04-19T05:06:40;8.48;;;4.32;;
72517;SDS011;60540;51.178;6.738;2023-04-19T05:09:06;8.48;;;3.85;;
72517;SDS011;60540;51.178;6.738;2023-04-19T05:11:32;7.10;;;3.85;;
72517;SDS011;60540;51.178;6.738;2023-04-19T05:13:58;5.88;;;3.38;;
72517;SDS011;60540;51.178;6.738;2023-04-19T05:16:25;8.88;;;4.03;;
72517;SDS011;60540;51.178;6.738;2023-04-19T05:18:51;9.23;;;4.20;;
72517;SDS011;60540;51.178;6.738;2023-04-19T05:21:16;8.35;;;4.25;;
72517;SDS011;60540;51.178;6.738;2023-04-19T05:23:42;6.28;;;3.80;;
72517;SDS011;60540;51.178;6.738;2023-04-19T05:26:08;8.43;;;3.75;;
72517;SDS011;60540;51.178;6.738;2023-04-19T05:28:37;6.05;;;3.47;;
72517;SDS011;60540;51.178;6.738;2023-04-19T05:31:03;6.80;;;3.80;;
72517;SDS011;60540;51.178;6.738;2023-04-19T05:33:29;8.15;;;3.83;;
72517;SDS011;60540;51.178;6.738;2023-04-19T05:35:54;7.07;;;3.78;;
72517;SDS011;60540;51.178;6.738;2023-04-19T05:38:20;7.05;;;3.10;;
72517;SDS011;60540;51.178;6.738;2023-04-19T05:40:46;7.20;;;3.38;;
72517;SDS011;60540;51.178;6.738;2023-04-19T05:43:12;7.10;;;3.78;;
72517;SDS011;60540;51.178;6.738;2023-04-19T05:45:37;6.18;;;3.20;;
72517;SDS011;60540;51.178;6.738;2023-04-19T05:48:03;6.82;;;3.30;;
72517;SDS011;60540;51.178;6.738;2023-04-19T05:50:30;7.43;;;3.20;;
72517;SDS011;60540;51.178;6.738;2023-04-19T05:55:22;7.90;;;3.30;;
72517;SDS011;60540;51.178;6.738;2023-04-19T05:57:47;6.28;;;3.42;;
72517;SDS011;60540;51.178;6.738;2023-04-19T06:00:13;6.95;;;3.30;;
72517;SDS011;60540;51.178;6.738;2023-04-19T06:02:40;6.25;;;3.10;;
72517;SDS011;60540;51.178;6.738;2023-04-19T06:05:08;6.35;;;3.45;;
72517;SDS011;60540;51.178;6.738;2023-04-19T06:07:33;9.82;;;3.58;;
72517;SDS011;60540;51.178;6.738;2023-04-19T06:09:59;6.78;;;3.40;;
72517;SDS011;60540;51.178;6.738;2023-04-19T06:12:25;6.43;;;3.00;;
72517;SDS011;60540;51.178;6.738;2023-04-19T06:14:51;5.53;;;2.95;;
72517;SDS011;60540;51.178;6.738;2023-04-19T06:17:17;6.70;;;3.60;;
72517;SDS011;60540;51.178;6.738;2023-04-19T06:19:47;6.93;;;3.30;;
72517;SDS011;60540;51.178;6.738;2023-04-19T06:22:13;7.50;;;3.08;;
72517;SDS011;60540;51.178;6.738;2023-04-19T06:24:39;6.95;;;3.53;;
72517;SDS011;60540;51.178;6.738;2023-04-19T06:27:05;5.88;;;3.50;;
72517;SDS011;60540;51.178;6.738;2023-04-19T06:29:30;7.60;;;3.17;;
72517;SDS011;60540;51.178;6.738;2023-04-19T06:31:56;7.72;;;3.67;;
72517;SDS011;60540;51.178;6.738;2023-04-19T06:34:22;7.60;;;3.40;;
72517;SDS011;60540;51.178;6.738;2023-04-19T06:36:48;6.30;;;3.22;;
72517;SDS011;60540;51.178;6.738;2023-04-19T06:39:13;8.55;;;3.28;;
72517;SDS011;60540;51.178;6.738;2023-04-19T06:41:39;7.00;;;3.45;;
72517;SDS011;60540;51.178;6.738;2023-04-19T06:44:05;10.38;;;3.55;;
72517;SDS011;60540;51.178;6.738;2023-04-19T06:46:31;5.97;;;3.35;;
72517;SDS011;60540;51.178;6.738;2023-04-19T06:48:57;7.65;;;3.60;;
72517;SDS011;60540;51.178;6.738;2023-04-19T06:51:23;9.63;;;3.40;;
72517;SDS011;60540;51.178;6.738;2023-04-19T06:53:49;6.15;;;3.75;;
72517;SDS011;60540;51.178;6.738;2023-04-19T06:56:15;5.97;;;3.35;;
72517;SDS011;60540;51.178;6.738;2023-04-19T06:58:41;6.30;;;3.88;;
72517;SDS011;60540;51.178;6.738;2023-04-19T07:01:06;6.28;;;3.22;;
72517;SDS011;60540;51.178;6.738;2023-04-19T07:03:32;6.88;;;3.63;;
72517;SDS011;60540;51.178;6.738;2023-04-19T07:05:58;5.70;;;2.85;;
72517;SDS011;60540;51.178;6.738;2023-04-19T07:08:24;6.93;;;3.55;;
72517;SDS011;60540;51.178;6.738;2023-04-19T07:10:51;6.35;;;3.10;;
72517;SDS011;60540;51.178;6.738;2023-04-19T07:13:17;7.20;;;3.90;;
72517;SDS011;60540;51.178;6.738;2023-04-19T07:15:43;8.15;;;3.28;;
72517;SDS011;60540;51.178;6.738;2023-04-19T07:18:09;6.93;;;3.40;;
72517;SDS011;60540;51.178;6.738;2023-04-19T07:20:35;8.70;;;3.80;;
72517;SDS011;60540;51.178;6.738;2023-04-19T07:23:01;7.25;;;3.70;;
72517;SDS011;60540;51.178;6.738;2023-04-19T07:25:27;7.45;;;3.67;;
72517;SDS011;60540;51.178;6.738;2023-04-19T07:27:52;6.93;;;3.58;;
72517;SDS011;60540;51.178;6.738;2023-04-19T07:30:19;7.07;;;3.58;;
72517;SDS011;60540;51.178;6.738;2023-04-19T07:32:45;8.55;;;3.72;;
72517;SDS011;60540;51.178;6.738;2023-04-19T07:35:11;6.63;;;3.63;;
72517;SDS011;60540;51.178;6.738;2023-04-19T07:37:36;8.02;;;3.95;;
72517;SDS011;60540;51.178;6.738;2023-04-19T07:40:02;6.82;;;3.20;;
72517;SDS011;60540;51.178;6.738;2023-04-19T07:44:55;5.93;;;3.05;;
72517;SDS011;60540;51.178;6.738;2023-04-19T07:47:21;7.13;;;3.58;;
72517;SDS011;60540;51.178;6.738;2023-04-19T07:49:50;7.28;;;3.50;;
72517;SDS011;60540;51.178;6.738;2023-04-19T07:52:16;6.32;;;3.65;;
72517;SDS011;60540;51.178;6.738;2023-04-19T07:54:43;7.40;;;3.40;;
72517;SDS011;60540;51.178;6.738;2023-04-19T07:57:08;8.70;;;4.07;;
72517;SDS011;60540;51.178;6.738;2023-04-19T07:59:34;7.13;;;3.90;;
72517;SDS011;60540;51.178;6.738;2023-04-19T08:02:00;6.65;;;3.03;;
72517;SDS011;60540;51.178;6.738;2023-04-19T08:04:26;8.40;;;4.10;;
72517;SDS011;60540;51.178;6.738;2023-04-19T08:06:51;8.75;;;4.10;;
72517;SDS011;60540;51.178;6.738;2023-04-19T08:09:17;7.10;;;3.92;;
72517;SDS011;60540;51.178;6.738;2023-04-19T08:11:43;8.45;;;4.57;;
72517;SDS011;60540;51.178;6.738;2023-04-19T08:14:09;6.82;;;3.50;;
72517;SDS011;60540;51.178;6.738;2023-04-19T08:16:35;6.75;;;3.45;;
72517;SDS011;60540;51.178;6.738;2023-04-19T08:19:00;8.50;;;3.60;;
72517;SDS011;60540;51.178;6.738;2023-04-19T08:21:26;5.68;;;3.40;;
72517;SDS011;60540;51.178;6.738;2023-04-19T08:23:52;7.35;;;3.97;;
72517;SDS011;60540;51.178;6.738;2023-04-19T08:26:18;8.18;;;3.80;;
72517;SDS011;60540;51.178;6.738;2023-04-19T08:28:43;7.70;;;3.45;;
72517;SDS011;60540;51.178;6.738;2023-04-19T08:31:09;6.40;;;3.13;;
72517;SDS011;60540;51.178;6.738;2023-04-19T08:33:35;6.95;;;3.17;;
72517;SDS011;60540;51.178;6.738;2023-04-19T08:36:01;7.25;;;3.13;;
72517;SDS011;60540;51.178;6.738;2023-04-19T08:38:27;5.70;;;3.22;;
72517;SDS011;60540;51.178;6.738;2023-04-19T08:40:53;5.90;;;3.38;;
72517;SDS011;60540;51.178;6.738;2023-04-19T08:43:23;6.65;;;3.35;;
72517;SDS011;60540;51.178;6.738;2023-04-19T08:45:49;7.05;;;3.40;;
72517;SDS011;60540;51.178;6.738;2023-04-19T08:48:16;8.25;;;3.33;;
72517;SDS011;60540;51.178;6.738;2023-04-19T08:50:42;7.57;;;2.90;;
72517;SDS011;60540;51.178;6.738;2023-04-19T08:53:10;6.15;;;3.00;;
72517;SDS011;60540;51.178;6.738;2023-04-19T08:55:40;6.63;;;3.53;;
72517;SDS011;60540;51.178;6.738;2023-04-19T08:58:06;7.65;;;3.47;;
72517;SDS011;60540;51.178;6.738;2023-04-19T09:00:32;5.68;;;2.92;;
72517;SDS011;60540;51.178;6.738;2023-04-19T09:02:58;6.63;;;3.40;;
72517;SDS011;60540;51.178;6.738;2023-04-19T09:05:24;5.47;;;2.85;;
72517;SDS011;60540;51.178;6.738;2023-04-19T09:07:50;6.30;;;3.20;;
72517;SDS011;60540;51.178;6.738;2023-04-19T09:10:17;5.68;;;2.90;;
72517;SDS011;60540;51.178;6.738;2023-04-19T09:12:58;6.60;;;2.90;;
72517;SDS011;60540;51.178;6.738;2023-04-19T09:15:38;7.30;;;2.92;;
72517;SDS011;60540;51.178;6.738;2023-04-19T09:18:06;6.65;;;2.45;;
72517;SDS011;60540;51.178;6.738;2023-04-19T09:20:40;6.10;;;2.83;;
72517;SDS011;60540;51.178;6.738;2023-04-19T09:23:08;5.28;;;2.58;;
72517;SDS011;60540;51.178;6.738;2023-04-19T09:25:49;8.18;;;3.00;;
72517;SDS011;60540;51.178;6.738;2023-04-19T09:28:26;5.38;;;2.75;;
72517;SDS011;60540;51.178;6.738;2023-04-19T09:30:54;5.72;;;2.50;;
72517;SDS011;60540;51.178;6.738;2023-04-19T09:33:30;6.40;;;2.25;;
72517;SDS011;60540;51.178;6.738;2023-04-19T09:35:57;6.03;;;2.80;;
72517;SDS011;60540;51.178;6.738;2023-04-19T09:38:24;5.53;;;2.53;;
72517;SDS011;60540;51.178;6.738;2023-04-19T09:40:49;4.82;;;2.20;;
72517;SDS011;60540;51.178;6.738;2023-04-19T09:43:22;5.55;;;2.40;;
72517;SDS011;60540;51.178;6.738;2023-04-19T09:45:48;5.63;;;2.25;;
72517;SDS011;60540;51.178;6.738;2023-04-19T09:48:14;4.80;;;2.20;;
72517;SDS011;60540;51.178;6.738;2023-04-19T09:50:53;5.40;;;2.30;;
72517;SDS011;60540;51.178;6.738;2023-04-19T09:53:21;4.57;;;2.33;;
72517;SDS011;60540;51.178;6.738;2023-04-19T09:55:53;4.63;;;2.50;;
72517;SDS011;60540;51.178;6.738;2023-04-19T09:58:19;6.15;;;2.67;;
72517;SDS011;60540;51.178;6.738;2023-04-19T10:00:45;4.00;;;2.08;;
72517;SDS011;60540;51.178;6.738;2023-04-19T10:03:15;8.45;;;2.50;;
72517;SDS011;60540;51.178;6.738;2023-04-19T10:05:42;7.60;;;2.33;;
72517;SDS011;60540;51.178;6.738;2023-04-19T10:08:11;4.93;;;2.13;;
72517;SDS011;60540;51.178;6.738;2023-04-19T10:10:38;4.88;;;2.00;;
72517;SDS011;60540;51.178;6.738;2023-04-19T10:13:06;5.15;;;2.20;;
72517;SDS011;60540;51.178;6.738;2023-04-19T10:15:33;4.68;;;1.88;;
72517;SDS011;60540;51.178;6.738;2023-04-19T10:18:01;4.32;;;2.20;;
72517;SDS011;60540;51.178;6.738;2023-04-19T10:22:58;5.22;;;2.50;;
72517;SDS011;60540;51.178;6.738;2023-04-19T10:25:28;5.22;;;2.53;;
72517;SDS011;60540;51.178;6.738;2023-04-19T10:27:54;4.32;;;1.80;;
72517;SDS011;60540;51.178;6.738;2023-04-19T10:30:23;3.20;;;1.55;;
72517;SDS011;60540;51.178;6.738;2023-04-19T10:32:52;4.50;;;1.60;;
72517;SDS011;60540;51.178;6.738;2023-04-19T10:35:24;3.88;;;1.80;;
72517;SDS011;60540;51.178;6.738;2023-04-19T10:38:04;5.85;;;1.90;;
72517;SDS011;60540;51.178;6.738;2023-04-19T10:43:28;5.13;;;1.65;;
72517;SDS011;60540;51.178;6.738;2023-04-19T10:48:52;3.40;;;1.45;;
72517;SDS011;60540;51.178;6.738;2023-04-19T10:51:28;3.35;;;1.20;;
72517;SDS011;60540;51.178;6.738;2023-04-19T10:53:58;3.95;;;1.10;;
72517;SDS011;60540;51.178;6.738;2023-04-19T11:01:38;2.75;;;1.23;;
72517;SDS011;60540;51.178;6.738;2023-04-19T11:04:17;3.92;;;1.40;;
72517;SDS011;60540;51.178;6.738;2023-04-19T11:09:32;6.18;;;1.90;;
72517;SDS011;60540;51.178;6.738;2023-04-19T11:14:29;4.13;;;1.48;;
72517;SDS011;60540;51.178;6.738;2023-04-19T11:16:57;3.72;;;1.70;;
72517;SDS011;60540;51.178;6.738;2023-04-19T11:21:49;3.63;;;1.80;;
72517;SDS011;60540;51.178;6.738;2023-04-19T11:24:15;3.70;;;1.90;;
72517;SDS011;60540;51.178;6.738;2023-04-19T11:26:43;4.53;;;1.77;;
72517;SDS011;60540;51.178;6.738;2023-04-19T11:29:10;3.33;;;1.60;;
72517;SDS011;60540;51.178;6.738;2023-04-19T11:31:36;4.07;;;1.77;;
72517;SDS011;60540;51.178;6.738;2023-04-19T11:34:02;6.13;;;2.05;;
72517;SDS011;60540;51.178;6.738;2023-04-19T11:36:29;4.55;;;2.00;;
72517;SDS011;60540;51.178;6.738;2023-04-19T11:38:56;4.22;;;1.80;;
72517;SDS011;60540;51.178;6.738;2023-04-19T11:41:22;3.97;;;2.00;;
72517;SDS011;60540;51.178;6.738;2023-04-19T11:43:48;5.07;;;2.42;;
72517;SDS011;60540;51.178;6.738;2023-04-19T11:46:14;5.57;;;2.00;;
72517;SDS011;60540;51.178;6.738;2023-04-19T11:48:52;4.20;;;1.80;;
72517;SDS011;60540;51.178;6.738;2023-04-19T11:51:18;4.40;;;2.22;;
72517;SDS011;60540;51.178;6.738;2023-04-19T11:53:45;4.40;;;2.05;;
72517;SDS011;60540;51.178;6.738;2023-04-19T11:56:10;5.47;;;1.80;;
72517;SDS011;60540;51.178;6.738;2023-04-19T11:58:37;4.30;;;1.90;;
72517;SDS011;60540;51.178;6.738;2023-04-19T12:01:10;3.40;;;1.73;;
72517;SDS011;60540;51.178;6.738;2023-04-19T12:06:14;3.63;;;1.58;;
72517;SDS011;60540;51.178;6.738;2023-04-19T12:08:46;5.60;;;2.00;;
72517;SDS011;60540;51.178;6.738;2023-04-19T12:11:13;4.60;;;2.25;;
72517;SDS011;60540;51.178;6.738;2023-04-19T12:13:40;4.47;;;2.38;;
72517;SDS011;60540;51.178;6.738;2023-04-19T12:16:08;3.58;;;1.60;;
72517;SDS011;60540;51.178;6.738;2023-04-19T12:21:40;3.80;;;2.00;;
72517;SDS011;60540;51.178;6.738;2023-04-19T12:24:06;4.57;;;2.35;;
72517;SDS011;60540;51.178;6.738;2023-04-19T12:26:32;3.55;;;1.85;;
72517;SDS011;60540;51.178;6.738;2023-04-19T12:28:58;6.50;;;1.80;;
72517;SDS011;60540;51.178;6.738;2023-04-19T12:31:25;4.80;;;2.20;;
72517;SDS011;60540;51.178;6.738;2023-04-19T12:36:17;5.25;;;2.00;;
72517;SDS011;60540;51.178;6.738;2023-04-19T12:38:43;4.88;;;1.80;;
72517;SDS011;60540;51.178;6.738;2023-04-19T12:41:09;4.68;;;1.70;;
72517;SDS011;60540;51.178;6.738;2023-04-19T12:46:01;4.53;;;2.08;;
72517;SDS011;60540;51.178;6.738;2023-04-19T12:48:27;4.30;;;2.00;;
72517;SDS011;60540;51.178;6.738;2023-04-19T12:50:53;5.15;;;1.90;;
72517;SDS011;60540;51.178;6.738;2023-04-19T12:53:19;4.65;;;2.17;;
72517;SDS011;60540;51.178;6.738;2023-04-19T12:55:45;4.88;;;1.80;;
72517;SDS011;60540;51.178;6.738;2023-04-19T12:58:12;5.28;;;2.78;;
72517;SDS011;60540;51.178;6.738;2023-04-19T13:03:04;6.50;;;2.17;;
72517;SDS011;60540;51.178;6.738;2023-04-19T13:05:29;3.50;;;2.00;;
72517;SDS011;60540;51.178;6.738;2023-04-19T13:07:55;3.97;;;2.42;;
72517;SDS011;60540;51.178;6.738;2023-04-19T13:10:21;4.18;;;1.98;;
72517;SDS011;60540;51.178;6.738;2023-04-19T13:12:47;4.93;;;2.20;;
72517;SDS011;60540;51.178;6.738;2023-04-19T13:15:12;4.18;;;2.30;;
72517;SDS011;60540;51.178;6.738;2023-04-19T13:17:38;6.03;;;2.33;;
72517;SDS011;60540;51.178;6.738;2023-04-19T13:20:04;4.25;;;2.28;;
72517;SDS011;60540;51.178;6.738;2023-04-19T13:22:34;5.10;;;2.40;;
72517;SDS011;60540;51.178;6.738;2023-04-19T13:24:59;5.30;;;2.50;;
72517;SDS011;60540;51.178;6.738;2023-04-19T13:27:25;4.18;;;2.33;;
72517;SDS011;60540;51.178;6.738;2023-04-19T13:29:53;5.28;;;2.35;;
72517;SDS011;60540;51.178;6.738;2023-04-19T13:32:19;4.57;;;2.72;;
72517;SDS011;60540;51.178;6.738;2023-04-19T13:34:45;5.43;;;2.58;;
72517;SDS011;60540;51.178;6.738;2023-04-19T13:37:11;5.25;;;2.47;;
72517;SDS011;60540;51.178;6.738;2023-04-19T13:39:36;6.03;;;2.38;;
72517;SDS011;60540;51.178;6.738;2023-04-19T13:42:02;5.43;;;2.40;;
72517;SDS011;60540;51.178;6.738;2023-04-19T13:44:28;7.00;;;3.47;;
72517;SDS011;60540;51.178;6.738;2023-04-19T13:46:54;5.20;;;2.30;;
72517;SDS011;60540;51.178;6.738;2023-04-19T13:49:20;5.05;;;2.60;;
72517;SDS011;60540;51.178;6.738;2023-04-19T13:51:46;6.57;;;3.20;;
72517;SDS011;60540;51.178;6.738;2023-04-19T13:54:11;5.95;;;2.60;;
72517;SDS011;60540;51.178;6.738;2023-04-19T13:56:37;6.85;;;2.58;;
72517;SDS011;60540;51.178;6.738;2023-04-19T13:59:03;5.28;;;2.20;;
72517;SDS011;60540;51.178;6.738;2023-04-19T14:01:29;4.50;;;2.33;;
72517;SDS011;60540;51.178;6.738;2023-04-19T14:03:54;6.82;;;3.00;;
72517;SDS011;60540;51.178;6.738;2023-04-19T14:06:20;5.35;;;2.60;;
72517;SDS011;60540;51.178;6.738;2023-04-19T14:08:46;4.43;;;2.47;;
72517;SDS011;60540;51.178;6.738;2023-04-19T14:11:12;5.75;;;2.67;;
72517;SDS011;60540;51.178;6.738;2023-04-19T14:13:37;5.57;;;2.67;;
72517;SDS011;60540;51.178;6.738;2023-04-19T14:16:03;5.30;;;2.45;;
72517;SDS011;60540;51.178;6.738;2023-04-19T14:18:29;5.82;;;2.70;;
72517;SDS011;60540;51.178;6.738;2023-04-19T14:20:55;5.38;;;2.70;;
72517;SDS011;60540;51.178;6.738;2023-04-19T14:23:20;5.38;;;2.55;;
72517;SDS011;60540;51.178;6.738;2023-04-19T14:25:46;5.32;;;2.58;;
72517;SDS011;60540;51.178;6.738;2023-04-19T14:28:12;6.55;;;3.17;;
72517;SDS011;60540;51.178;6.738;2023-04-19T14:30:38;5.00;;;3.10;;
72517;SDS011;60540;51.178;6.738;2023-04-19T14:33:04;6.65;;;2.60;;
72517;SDS011;60540;51.178;6.738;2023-04-19T14:35:30;8.45;;;2.83;;
72517;SDS011;60540;51.178;6.738;2023-04-19T14:37:55;6.15;;;2.67;;
72517;SDS011;60540;51.178;6.738;2023-04-19T14:40:21;6.45;;;2.80;;
72517;SDS011;60540;51.178;6.738;2023-04-19T14:42:47;5.50;;;2.50;;
72517;SDS011;60540;51.178;6.738;2023-04-19T14:45:13;3.92;;;2.50;;
72517;SDS011;60540;51.178;6.738;2023-04-19T14:47:39;6.57;;;2.60;;
72517;SDS011;60540;51.178;6.738;2023-04-19T14:50:05;7.80;;;2.90;;
72517;SDS011;60540;51.178;6.738;2023-04-19T14:52:31;3.95;;;2.70;;
72517;SDS011;60540;51.178;6.738;2023-04-19T14:54:57;6.07;;;2.55;;
72517;SDS011;60540;51.178;6.738;2023-04-19T14:57:25;5.43;;;2.78;;
72517;SDS011;60540;51.178;6.738;2023-04-19T14:59:54;5.60;;;2.65;;
72517;SDS011;60540;51.178;6.738;2023-04-19T15:02:22;6.50;;;2.55;;
72517;SDS011;60540;51.178;6.738;2023-04-19T15:04:50;4.45;;;2.78;;
72517;SDS011;60540;51.178;6.738;2023-04-19T15:07:16;6.15;;;2.95;;
72517;SDS011;60540;51.178;6.738;2023-04-19T15:09:42;5.15;;;2.58;;
72517;SDS011;60540;51.178;6.738;2023-04-19T15:12:07;5.10;;;2.72;;
72517;SDS011;60540;51.178;6.738;2023-04-19T15:14:33;3.90;;;2.15;;
72517;SDS011;60540;51.178;6.738;2023-04-19T15:16:59;8.32;;;3.05;;
72517;SDS011;60540;51.178;6.738;2023-04-19T15:19:25;6.47;;;2.35;;
72517;SDS011;60540;51.178;6.738;2023-04-19T15:21:51;5.00;;;2.40;;
72517;SDS011;60540;51.178;6.738;2023-04-19T15:24:16;5.35;;;2.33;;
72517;SDS011;60540;51.178;6.738;2023-04-19T15:26:42;3.65;;;1.90;;
72517;SDS011;60540;51.178;6.738;2023-04-19T15:29:08;4.97;;;2.42;;
72517;SDS011;60540;51.178;6.738;2023-04-19T15:31:34;5.28;;;2.67;;